sensor_id;sensor_type;location;lat;lon;timestamp;P1;durP1;ratioP1;P2;durP2;ratioP2
64789;SDS011;51223;51.816;5.862;2023-08-17T00:00:52;1.00;;;0.88;;
64789;SDS011;51223;51.816;5.862;2023-08-17T00:03:17;3.67;;;0.60;;
64789;SDS011;51223;51.816;5.862;2023-08-17T00:05:43;4.03;;;1.05;;
64789;SDS011;51223;51.816;5.862;2023-08-17T00:08:09;0.50;;;0.50;;
64789;SDS011;51223;51.816;5.862;2023-08-17T00:10:35;3.55;;;0.70;;
64789;SDS011;51223;51.816;5.862;2023-08-17T00:13:00;0.70;;;0.70;;
64789;SDS011;51223;51.816;5.862;2023-08-17T00:15:27;0.93;;;0.80;;
64789;SDS011;51223;51.816;5.862;2023-08-17T00:17:53;1.20;;;0.70;;
64789;SDS011;51223;51.816;5.862;2023-08-17T00:20:18;4.00;;;0.70;;
64789;SDS011;51223;51.816;5.862;2023-08-17T00:22:44;1.05;;;0.60;;
64789;SDS011;51223;51.816;5.862;2023-08-17T00:25:10;0.90;;;0.47;;
64789;SDS011;51223;51.816;5.862;2023-08-17T00:27:35;0.28;;;0.25;;
64789;SDS011;51223;51.816;5.862;2023-08-17T00:30:01;2.08;;;0.50;;
64789;SDS011;51223;51.816;5.862;2023-08-17T00:32:27;0.73;;;0.47;;
64789;SDS011;51223;51.816;5.862;2023-08-17T00:34:52;1.52;;;0.90;;
64789;SDS011;51223;51.816;5.862;2023-08-17T00:37:18;2.30;;;0.70;;
64789;SDS011;51223;51.816;5.862;2023-08-17T00:39:44;1.27;;;0.70;;
64789;SDS011;51223;51.816;5.862;2023-08-17T00:42:09;0.50;;;0.50;;
64789;SDS011;51223;51.816;5.862;2023-08-17T00:44:35;1.60;;;0.65;;
64789;SDS011;51223;51.816;5.862;2023-08-17T00:47:00;1.02;;;0.70;;
64789;SDS011;51223;51.816;5.862;2023-08-17T00:49:26;0.95;;;0.85;;
64789;SDS011;51223;51.816;5.862;2023-08-17T00:51:52;2.95;;;1.10;;
64789;SDS011;51223;51.816;5.862;2023-08-17T00:54:19;2.30;;;0.77;;
64789;SDS011;51223;51.816;5.862;2023-08-17T00:56:48;0.65;;;0.43;;
64789;SDS011;51223;51.816;5.862;2023-08-17T00:59:14;1.17;;;0.95;;
64789;SDS011;51223;51.816;5.862;2023-08-17T01:01:39;1.48;;;0.95;;
64789;SDS011;51223;51.816;5.862;2023-08-17T01:04:05;0.90;;;0.50;;
64789;SDS011;51223;51.816;5.862;2023-08-17T01:06:31;0.45;;;0.45;;
64789;SDS011;51223;51.816;5.862;2023-08-17T01:08:56;1.17;;;0.85;;
64789;SDS011;51223;51.816;5.862;2023-08-17T01:16:27;3.30;;;0.70;;
64789;SDS011;51223;51.816;5.862;2023-08-17T01:18:53;2.75;;;0.80;;
64789;SDS011;51223;51.816;5.862;2023-08-17T01:21:21;3.05;;;0.75;;
64789;SDS011;51223;51.816;5.862;2023-08-17T01:23:48;1.27;;;0.50;;
64789;SDS011;51223;51.816;5.862;2023-08-17T01:26:14;0.38;;;0.38;;
64789;SDS011;51223;51.816;5.862;2023-08-17T01:28:44;3.03;;;1.00;;
64789;SDS011;51223;51.816;5.862;2023-08-17T01:31:14;2.00;;;0.60;;
64789;SDS011;51223;51.816;5.862;2023-08-17T01:33:43;2.08;;;0.98;;
64789;SDS011;51223;51.816;5.862;2023-08-17T01:36:25;0.45;;;0.43;;
64789;SDS011;51223;51.816;5.862;2023-08-17T01:38:52;2.60;;;0.70;;
64789;SDS011;51223;51.816;5.862;2023-08-17T01:41:20;0.68;;;0.63;;
64789;SDS011;51223;51.816;5.862;2023-08-17T01:43:46;2.00;;;0.63;;
64789;SDS011;51223;51.816;5.862;2023-08-17T01:46:13;0.45;;;0.43;;
64789;SDS011;51223;51.816;5.862;2023-08-17T01:48:39;0.00;;;0.00;;
64789;SDS011;51223;51.816;5.862;2023-08-17T01:51:05;1.58;;;0.70;;
64789;SDS011;51223;51.816;5.862;2023-08-17T01:53:30;4.28;;;0.45;;
64789;SDS011;51223;51.816;5.862;2023-08-17T01:55:56;0.68;;;0.45;;
64789;SDS011;51223;51.816;5.862;2023-08-17T01:58:21;1.52;;;0.93;;
64789;SDS011;51223;51.816;5.862;2023-08-17T02:00:47;0.93;;;0.70;;
64789;SDS011;51223;51.816;5.862;2023-08-17T02:03:13;0.73;;;0.45;;
64789;SDS011;51223;51.816;5.862;2023-08-17T02:05:38;0.47;;;0.47;;
64789;SDS011;51223;51.816;5.862;2023-08-17T02:08:04;4.07;;;0.77;;
64789;SDS011;51223;51.816;5.862;2023-08-17T02:10:29;0.45;;;0.45;;
64789;SDS011;51223;51.816;5.862;2023-08-17T02:12:55;0.50;;;0.50;;
64789;SDS011;51223;51.816;5.862;2023-08-17T02:15:20;1.77;;;0.90;;
64789;SDS011;51223;51.816;5.862;2023-08-17T02:17:46;1.85;;;0.70;;
64789;SDS011;51223;51.816;5.862;2023-08-17T02:20:11;1.58;;;1.02;;
64789;SDS011;51223;51.816;5.862;2023-08-17T02:22:37;1.38;;;0.60;;
64789;SDS011;51223;51.816;5.862;2023-08-17T02:25:03;2.30;;;0.75;;
64789;SDS011;51223;51.816;5.862;2023-08-17T02:27:29;3.83;;;0.98;;
64789;SDS011;51223;51.816;5.862;2023-08-17T02:29:56;0.98;;;0.57;;
64789;SDS011;51223;51.816;5.862;2023-08-17T02:32:22;0.90;;;0.55;;
64789;SDS011;51223;51.816;5.862;2023-08-17T02:34:47;1.48;;;0.47;;
64789;SDS011;51223;51.816;5.862;2023-08-17T02:37:13;0.80;;;0.40;;
64789;SDS011;51223;51.816;5.862;2023-08-17T02:39:39;2.03;;;0.70;;
64789;SDS011;51223;51.816;5.862;2023-08-17T02:42:04;1.10;;;1.00;;
64789;SDS011;51223;51.816;5.862;2023-08-17T02:44:30;1.25;;;1.02;;
64789;SDS011;51223;51.816;5.862;2023-08-17T02:46:55;4.90;;;0.73;;
64789;SDS011;51223;51.816;5.862;2023-08-17T02:49:21;0.30;;;0.30;;
64789;SDS011;51223;51.816;5.862;2023-08-17T02:51:47;2.42;;;0.70;;
64789;SDS011;51223;51.816;5.862;2023-08-17T02:54:12;0.65;;;0.30;;
64789;SDS011;51223;51.816;5.862;2023-08-17T02:56:38;1.30;;;0.68;;
64789;SDS011;51223;51.816;5.862;2023-08-17T02:59:03;1.23;;;0.85;;
64789;SDS011;51223;51.816;5.862;2023-08-17T03:01:29;0.50;;;0.50;;
64789;SDS011;51223;51.816;5.862;2023-08-17T03:03:56;0.55;;;0.55;;
64789;SDS011;51223;51.816;5.862;2023-08-17T03:06:22;0.60;;;0.60;;
64789;SDS011;51223;51.816;5.862;2023-08-17T03:08:47;3.58;;;0.40;;
64789;SDS011;51223;51.816;5.862;2023-08-17T03:11:13;0.80;;;0.77;;
64789;SDS011;51223;51.816;5.862;2023-08-17T03:13:38;1.23;;;0.57;;
64789;SDS011;51223;51.816;5.862;2023-08-17T03:16:04;0.70;;;0.45;;
64789;SDS011;51223;51.816;5.862;2023-08-17T03:18:30;1.00;;;0.90;;
64789;SDS011;51223;51.816;5.862;2023-08-17T03:20:55;1.40;;;0.85;;
64789;SDS011;51223;51.816;5.862;2023-08-17T03:23:21;0.40;;;0.40;;
64789;SDS011;51223;51.816;5.862;2023-08-17T03:25:50;1.15;;;0.65;;
64789;SDS011;51223;51.816;5.862;2023-08-17T03:28:16;0.70;;;0.70;;
64789;SDS011;51223;51.816;5.862;2023-08-17T03:30:42;1.60;;;0.80;;
64789;SDS011;51223;51.816;5.862;2023-08-17T03:33:08;0.63;;;0.63;;
64789;SDS011;51223;51.816;5.862;2023-08-17T03:35:34;1.25;;;1.15;;
64789;SDS011;51223;51.816;5.862;2023-08-17T03:38:00;3.80;;;0.90;;
64789;SDS011;51223;51.816;5.862;2023-08-17T03:40:25;2.75;;;1.00;;
64789;SDS011;51223;51.816;5.862;2023-08-17T03:42:51;0.32;;;0.32;;
64789;SDS011;51223;51.816;5.862;2023-08-17T03:45:17;0.80;;;0.70;;
64789;SDS011;51223;51.816;5.862;2023-08-17T03:47:43;0.98;;;0.38;;
64789;SDS011;51223;51.816;5.862;2023-08-17T03:50:08;3.38;;;0.65;;
64789;SDS011;51223;51.816;5.862;2023-08-17T03:52:34;1.33;;;0.65;;
64789;SDS011;51223;51.816;5.862;2023-08-17T03:55:00;5.88;;;1.15;;
64789;SDS011;51223;51.816;5.862;2023-08-17T03:57:25;1.50;;;0.30;;
64789;SDS011;51223;51.816;5.862;2023-08-17T03:59:51;0.22;;;0.22;;
64789;SDS011;51223;51.816;5.862;2023-08-17T04:02:16;2.42;;;0.82;;
64789;SDS011;51223;51.816;5.862;2023-08-17T04:04:42;1.83;;;1.38;;
64789;SDS011;51223;51.816;5.862;2023-08-17T04:07:07;0.30;;;0.30;;
64789;SDS011;51223;51.816;5.862;2023-08-17T04:09:33;1.70;;;1.02;;
64789;SDS011;51223;51.816;5.862;2023-08-17T04:11:59;1.52;;;1.08;;
64789;SDS011;51223;51.816;5.862;2023-08-17T04:14:25;4.07;;;1.08;;
64789;SDS011;51223;51.816;5.862;2023-08-17T04:16:51;1.25;;;0.50;;
64789;SDS011;51223;51.816;5.862;2023-08-17T04:19:17;1.45;;;0.82;;
64789;SDS011;51223;51.816;5.862;2023-08-17T04:21:42;1.58;;;0.57;;
64789;SDS011;51223;51.816;5.862;2023-08-17T04:24:08;4.70;;;0.40;;
64789;SDS011;51223;51.816;5.862;2023-08-17T04:26:33;4.25;;;0.75;;
64789;SDS011;51223;51.816;5.862;2023-08-17T04:28:59;0.98;;;0.77;;
64789;SDS011;51223;51.816;5.862;2023-08-17T04:31:24;2.60;;;0.47;;
64789;SDS011;51223;51.816;5.862;2023-08-17T04:33:51;4.20;;;0.98;;
64789;SDS011;51223;51.816;5.862;2023-08-17T04:36:17;1.10;;;0.77;;
64789;SDS011;51223;51.816;5.862;2023-08-17T04:38:42;1.38;;;0.57;;
64789;SDS011;51223;51.816;5.862;2023-08-17T04:41:08;0.63;;;0.57;;
64789;SDS011;51223;51.816;5.862;2023-08-17T04:43:33;1.67;;;1.13;;
64789;SDS011;51223;51.816;5.862;2023-08-17T04:45:59;8.30;;;1.45;;
64789;SDS011;51223;51.816;5.862;2023-08-17T04:48:24;0.73;;;0.55;;
64789;SDS011;51223;51.816;5.862;2023-08-17T04:50:50;0.57;;;0.40;;
64789;SDS011;51223;51.816;5.862;2023-08-17T04:53:16;1.15;;;0.70;;
64789;SDS011;51223;51.816;5.862;2023-08-17T04:55:41;1.25;;;0.90;;
64789;SDS011;51223;51.816;5.862;2023-08-17T04:58:07;1.10;;;0.55;;
64789;SDS011;51223;51.816;5.862;2023-08-17T05:00:33;0.90;;;0.60;;
64789;SDS011;51223;51.816;5.862;2023-08-17T05:02:59;0.68;;;0.68;;
64789;SDS011;51223;51.816;5.862;2023-08-17T05:05:24;0.63;;;0.60;;
64789;SDS011;51223;51.816;5.862;2023-08-17T05:07:52;2.88;;;0.95;;
64789;SDS011;51223;51.816;5.862;2023-08-17T05:10:17;0.45;;;0.45;;
64789;SDS011;51223;51.816;5.862;2023-08-17T05:12:43;0.80;;;0.73;;
64789;SDS011;51223;51.816;5.862;2023-08-17T05:15:08;0.98;;;0.60;;
64789;SDS011;51223;51.816;5.862;2023-08-17T05:17:34;0.93;;;0.50;;
64789;SDS011;51223;51.816;5.862;2023-08-17T05:20:00;3.83;;;0.40;;
64789;SDS011;51223;51.816;5.862;2023-08-17T05:22:27;0.65;;;0.40;;
64789;SDS011;51223;51.816;5.862;2023-08-17T05:24:52;0.50;;;0.50;;
64789;SDS011;51223;51.816;5.862;2023-08-17T05:27:18;0.52;;;0.50;;
64789;SDS011;51223;51.816;5.862;2023-08-17T05:29:44;3.15;;;0.80;;
64789;SDS011;51223;51.816;5.862;2023-08-17T05:32:09;1.67;;;1.08;;
64789;SDS011;51223;51.816;5.862;2023-08-17T05:34:35;1.92;;;0.88;;
64789;SDS011;51223;51.816;5.862;2023-08-17T05:37:00;1.38;;;0.63;;
64789;SDS011;51223;51.816;5.862;2023-08-17T05:39:26;5.63;;;0.88;;
64789;SDS011;51223;51.816;5.862;2023-08-17T05:41:51;1.27;;;1.00;;
64789;SDS011;51223;51.816;5.862;2023-08-17T05:44:17;1.52;;;0.70;;
64789;SDS011;51223;51.816;5.862;2023-08-17T05:46:43;1.30;;;0.70;;
64789;SDS011;51223;51.816;5.862;2023-08-17T05:49:08;0.38;;;0.38;;
64789;SDS011;51223;51.816;5.862;2023-08-17T05:51:34;0.50;;;0.40;;
64789;SDS011;51223;51.816;5.862;2023-08-17T05:53:59;1.67;;;0.70;;
64789;SDS011;51223;51.816;5.862;2023-08-17T05:56:25;1.25;;;0.47;;
64789;SDS011;51223;51.816;5.862;2023-08-17T05:58:51;1.20;;;0.70;;
64789;SDS011;51223;51.816;5.862;2023-08-17T06:01:16;0.80;;;0.57;;
64789;SDS011;51223;51.816;5.862;2023-08-17T06:03:42;2.95;;;1.00;;
64789;SDS011;51223;51.816;5.862;2023-08-17T06:06:09;1.35;;;0.90;;
64789;SDS011;51223;51.816;5.862;2023-08-17T06:08:34;1.02;;;0.65;;
64789;SDS011;51223;51.816;5.862;2023-08-17T06:11:00;3.70;;;0.60;;
64789;SDS011;51223;51.816;5.862;2023-08-17T06:13:26;10.00;;;1.05;;
64789;SDS011;51223;51.816;5.862;2023-08-17T06:15:51;4.40;;;0.70;;
64789;SDS011;51223;51.816;5.862;2023-08-17T06:18:17;1.75;;;0.68;;
64789;SDS011;51223;51.816;5.862;2023-08-17T06:20:43;1.35;;;0.82;;
64789;SDS011;51223;51.816;5.862;2023-08-17T06:23:08;6.40;;;1.10;;
64789;SDS011;51223;51.816;5.862;2023-08-17T06:25:34;3.10;;;0.93;;
64789;SDS011;51223;51.816;5.862;2023-08-17T06:28:00;1.20;;;0.73;;
64789;SDS011;51223;51.816;5.862;2023-08-17T06:30:25;0.93;;;0.60;;
64789;SDS011;51223;51.816;5.862;2023-08-17T06:32:51;1.80;;;0.98;;
64789;SDS011;51223;51.816;5.862;2023-08-17T06:35:17;1.60;;;0.98;;
64789;SDS011;51223;51.816;5.862;2023-08-17T06:37:42;0.98;;;0.88;;
64789;SDS011;51223;51.816;5.862;2023-08-17T06:40:08;1.48;;;1.17;;
64789;SDS011;51223;51.816;5.862;2023-08-17T06:42:36;2.95;;;0.90;;
64789;SDS011;51223;51.816;5.862;2023-08-17T06:45:02;0.68;;;0.55;;
64789;SDS011;51223;51.816;5.862;2023-08-17T06:47:28;0.38;;;0.32;;
64789;SDS011;51223;51.816;5.862;2023-08-17T06:49:54;1.02;;;0.50;;
64789;SDS011;51223;51.816;5.862;2023-08-17T06:52:19;0.10;;;0.10;;
64789;SDS011;51223;51.816;5.862;2023-08-17T06:54:45;1.52;;;0.70;;
64789;SDS011;51223;51.816;5.862;2023-08-17T06:57:11;1.55;;;0.82;;
64789;SDS011;51223;51.816;5.862;2023-08-17T06:59:36;1.95;;;0.38;;
64789;SDS011;51223;51.816;5.862;2023-08-17T07:02:02;0.75;;;0.65;;
64789;SDS011;51223;51.816;5.862;2023-08-17T07:04:28;0.95;;;0.38;;
64789;SDS011;51223;51.816;5.862;2023-08-17T07:06:53;0.73;;;0.73;;
64789;SDS011;51223;51.816;5.862;2023-08-17T07:09:19;2.05;;;0.70;;
64789;SDS011;51223;51.816;5.862;2023-08-17T07:11:46;0.90;;;0.80;;
64789;SDS011;51223;51.816;5.862;2023-08-17T07:14:11;1.00;;;0.85;;
64789;SDS011;51223;51.816;5.862;2023-08-17T07:16:37;0.45;;;0.45;;
64789;SDS011;51223;51.816;5.862;2023-08-17T07:19:03;1.58;;;1.00;;
64789;SDS011;51223;51.816;5.862;2023-08-17T07:21:29;1.00;;;0.75;;
64789;SDS011;51223;51.816;5.862;2023-08-17T07:23:55;2.25;;;0.80;;
64789;SDS011;51223;51.816;5.862;2023-08-17T07:26:21;3.60;;;0.77;;
64789;SDS011;51223;51.816;5.862;2023-08-17T07:28:46;3.63;;;0.77;;
64789;SDS011;51223;51.816;5.862;2023-08-17T07:31:12;0.70;;;0.70;;
64789;SDS011;51223;51.816;5.862;2023-08-17T07:33:38;3.75;;;1.20;;
64789;SDS011;51223;51.816;5.862;2023-08-17T07:36:04;0.93;;;0.77;;
64789;SDS011;51223;51.816;5.862;2023-08-17T07:38:29;2.55;;;0.93;;
64789;SDS011;51223;51.816;5.862;2023-08-17T07:40:55;0.98;;;0.93;;
64789;SDS011;51223;51.816;5.862;2023-08-17T07:43:21;1.48;;;0.75;;
64789;SDS011;51223;51.816;5.862;2023-08-17T07:45:52;1.88;;;1.27;;
64789;SDS011;51223;51.816;5.862;2023-08-17T07:48:18;0.90;;;0.73;;
64789;SDS011;51223;51.816;5.862;2023-08-17T07:50:44;0.50;;;0.50;;
64789;SDS011;51223;51.816;5.862;2023-08-17T07:53:13;0.80;;;0.80;;
64789;SDS011;51223;51.816;5.862;2023-08-17T07:55:38;2.42;;;1.23;;
64789;SDS011;51223;51.816;5.862;2023-08-17T07:58:04;0.85;;;0.80;;
64789;SDS011;51223;51.816;5.862;2023-08-17T08:00:32;1.85;;;0.88;;
64789;SDS011;51223;51.816;5.862;2023-08-17T08:02:57;1.83;;;0.80;;
64789;SDS011;51223;51.816;5.862;2023-08-17T08:05:23;0.60;;;0.60;;
64789;SDS011;51223;51.816;5.862;2023-08-17T08:07:49;0.20;;;0.20;;
64789;SDS011;51223;51.816;5.862;2023-08-17T08:10:15;2.15;;;1.10;;
64789;SDS011;51223;51.816;5.862;2023-08-17T08:12:40;2.00;;;1.20;;
64789;SDS011;51223;51.816;5.862;2023-08-17T08:15:06;1.10;;;0.82;;
64789;SDS011;51223;51.816;5.862;2023-08-17T08:17:32;1.33;;;0.52;;
64789;SDS011;51223;51.816;5.862;2023-08-17T08:19:57;2.58;;;0.60;;
64789;SDS011;51223;51.816;5.862;2023-08-17T08:22:23;0.75;;;0.73;;
64789;SDS011;51223;51.816;5.862;2023-08-17T08:24:49;0.52;;;0.52;;
64789;SDS011;51223;51.816;5.862;2023-08-17T08:27:15;0.98;;;0.85;;
64789;SDS011;51223;51.816;5.862;2023-08-17T08:29:40;4.55;;;1.00;;
64789;SDS011;51223;51.816;5.862;2023-08-17T08:32:06;2.55;;;0.80;;
64789;SDS011;51223;51.816;5.862;2023-08-17T08:34:32;0.43;;;0.40;;
64789;SDS011;51223;51.816;5.862;2023-08-17T08:36:57;4.15;;;0.90;;
64789;SDS011;51223;51.816;5.862;2023-08-17T08:39:25;0.95;;;0.80;;
64789;SDS011;51223;51.816;5.862;2023-08-17T08:41:50;1.65;;;1.20;;
64789;SDS011;51223;51.816;5.862;2023-08-17T08:44:16;3.15;;;1.35;;
64789;SDS011;51223;51.816;5.862;2023-08-17T08:46:42;2.63;;;1.05;;
64789;SDS011;51223;51.816;5.862;2023-08-17T08:49:09;0.68;;;0.50;;
64789;SDS011;51223;51.816;5.862;2023-08-17T08:51:35;1.35;;;0.77;;
64789;SDS011;51223;51.816;5.862;2023-08-17T08:54:03;3.03;;;1.40;;
64789;SDS011;51223;51.816;5.862;2023-08-17T08:56:32;5.75;;;1.35;;
64789;SDS011;51223;51.816;5.862;2023-08-17T08:59:00;2.20;;;1.58;;
64789;SDS011;51223;51.816;5.862;2023-08-17T09:01:26;1.58;;;0.93;;
64789;SDS011;51223;51.816;5.862;2023-08-17T09:03:52;1.25;;;0.75;;
64789;SDS011;51223;51.816;5.862;2023-08-17T09:06:18;1.50;;;0.65;;
64789;SDS011;51223;51.816;5.862;2023-08-17T09:08:44;0.50;;;0.50;;
64789;SDS011;51223;51.816;5.862;2023-08-17T09:11:11;1.38;;;1.27;;
64789;SDS011;51223;51.816;5.862;2023-08-17T09:13:36;1.63;;;0.95;;
64789;SDS011;51223;51.816;5.862;2023-08-17T09:16:02;2.95;;;1.02;;
64789;SDS011;51223;51.816;5.862;2023-08-17T09:18:27;2.13;;;1.25;;
64789;SDS011;51223;51.816;5.862;2023-08-17T09:20:53;2.67;;;1.20;;
64789;SDS011;51223;51.816;5.862;2023-08-17T09:23:21;0.68;;;0.68;;
64789;SDS011;51223;51.816;5.862;2023-08-17T09:25:47;2.60;;;1.38;;
64789;SDS011;51223;51.816;5.862;2023-08-17T09:28:13;4.78;;;1.63;;
64789;SDS011;51223;51.816;5.862;2023-08-17T09:30:56;1.55;;;1.00;;
64789;SDS011;51223;51.816;5.862;2023-08-17T09:33:23;2.28;;;1.40;;
64789;SDS011;51223;51.816;5.862;2023-08-17T09:35:52;2.42;;;1.60;;
64789;SDS011;51223;51.816;5.862;2023-08-17T09:38:18;0.32;;;0.32;;
64789;SDS011;51223;51.816;5.862;2023-08-17T09:40:43;1.75;;;1.23;;
64789;SDS011;51223;51.816;5.862;2023-08-17T09:43:09;0.30;;;0.30;;
64789;SDS011;51223;51.816;5.862;2023-08-17T09:45:35;4.20;;;1.85;;
64789;SDS011;51223;51.816;5.862;2023-08-17T09:48:02;6.55;;;1.40;;
64789;SDS011;51223;51.816;5.862;2023-08-17T09:50:28;0.55;;;0.55;;
64789;SDS011;51223;51.816;5.862;2023-08-17T09:52:54;3.47;;;1.35;;
64789;SDS011;51223;51.816;5.862;2023-08-17T09:55:22;7.40;;;1.73;;
64789;SDS011;51223;51.816;5.862;2023-08-17T09:57:51;1.90;;;0.88;;
64789;SDS011;51223;51.816;5.862;2023-08-17T10:00:19;0.57;;;0.57;;
64789;SDS011;51223;51.816;5.862;2023-08-17T10:02:44;0.90;;;0.85;;
64789;SDS011;51223;51.816;5.862;2023-08-17T10:05:11;1.80;;;1.00;;
64789;SDS011;51223;51.816;5.862;2023-08-17T10:07:37;2.42;;;1.27;;
64789;SDS011;51223;51.816;5.862;2023-08-17T10:10:04;1.20;;;1.10;;
64789;SDS011;51223;51.816;5.862;2023-08-17T10:12:32;1.33;;;1.20;;
64789;SDS011;51223;51.816;5.862;2023-08-17T10:15:02;1.70;;;1.20;;
64789;SDS011;51223;51.816;5.862;2023-08-17T10:17:30;5.53;;;1.55;;
64789;SDS011;51223;51.816;5.862;2023-08-17T10:20:00;1.73;;;1.35;;
64789;SDS011;51223;51.816;5.862;2023-08-17T10:22:31;1.80;;;1.20;;
64789;SDS011;51223;51.816;5.862;2023-08-17T10:24:59;3.45;;;1.58;;
64789;SDS011;51223;51.816;5.862;2023-08-17T10:27:25;1.55;;;1.08;;
64789;SDS011;51223;51.816;5.862;2023-08-17T10:29:51;3.97;;;1.73;;
64789;SDS011;51223;51.816;5.862;2023-08-17T10:32:17;6.55;;;1.15;;
64789;SDS011;51223;51.816;5.862;2023-08-17T10:34:43;2.22;;;1.38;;
64789;SDS011;51223;51.816;5.862;2023-08-17T10:37:09;2.60;;;1.13;;
64789;SDS011;51223;51.816;5.862;2023-08-17T10:39:35;11.57;;;2.42;;
64789;SDS011;51223;51.816;5.862;2023-08-17T10:42:04;3.17;;;1.98;;
64789;SDS011;51223;51.816;5.862;2023-08-17T10:44:48;3.58;;;1.90;;
64789;SDS011;51223;51.816;5.862;2023-08-17T10:47:24;4.90;;;1.70;;
64789;SDS011;51223;51.816;5.862;2023-08-17T10:49:50;1.77;;;1.55;;
64789;SDS011;51223;51.816;5.862;2023-08-17T10:52:24;1.65;;;1.45;;
64789;SDS011;51223;51.816;5.862;2023-08-17T10:54:50;2.38;;;1.42;;
64789;SDS011;51223;51.816;5.862;2023-08-17T11:02:38;2.92;;;1.65;;
64789;SDS011;51223;51.816;5.862;2023-08-17T11:05:04;5.43;;;2.05;;
64789;SDS011;51223;51.816;5.862;2023-08-17T11:12:31;6.47;;;2.17;;
64789;SDS011;51223;51.816;5.862;2023-08-17T11:14:57;1.77;;;1.55;;
64789;SDS011;51223;51.816;5.862;2023-08-17T11:17:23;3.30;;;1.98;;
64789;SDS011;51223;51.816;5.862;2023-08-17T11:19:48;3.30;;;2.30;;
64789;SDS011;51223;51.816;5.862;2023-08-17T11:22:16;4.75;;;2.33;;
64789;SDS011;51223;51.816;5.862;2023-08-17T11:24:42;6.20;;;2.55;;
64789;SDS011;51223;51.816;5.862;2023-08-17T11:27:09;2.63;;;1.65;;
64789;SDS011;51223;51.816;5.862;2023-08-17T11:29:35;8.25;;;1.27;;
64789;SDS011;51223;51.816;5.862;2023-08-17T11:32:01;3.25;;;2.10;;
64789;SDS011;51223;51.816;5.862;2023-08-17T11:34:26;6.63;;;2.30;;
64789;SDS011;51223;51.816;5.862;2023-08-17T11:36:56;2.97;;;1.33;;
64789;SDS011;51223;51.816;5.862;2023-08-17T11:39:22;3.67;;;1.95;;
64789;SDS011;51223;51.816;5.862;2023-08-17T11:41:48;5.22;;;2.67;;
64789;SDS011;51223;51.816;5.862;2023-08-17T11:44:13;7.03;;;2.75;;
64789;SDS011;51223;51.816;5.862;2023-08-17T11:46:40;4.50;;;2.33;;
64789;SDS011;51223;51.816;5.862;2023-08-17T11:49:06;8.50;;;2.53;;
64789;SDS011;51223;51.816;5.862;2023-08-17T11:51:32;4.70;;;2.10;;
64789;SDS011;51223;51.816;5.862;2023-08-17T11:54:00;7.82;;;1.80;;
64789;SDS011;51223;51.816;5.862;2023-08-17T11:56:28;3.80;;;1.85;;
64789;SDS011;51223;51.816;5.862;2023-08-17T11:58:54;3.15;;;2.28;;
64789;SDS011;51223;51.816;5.862;2023-08-17T12:01:19;7.63;;;2.85;;
64789;SDS011;51223;51.816;5.862;2023-08-17T12:03:47;3.45;;;1.88;;
64789;SDS011;51223;51.816;5.862;2023-08-17T12:06:15;3.35;;;2.13;;
64789;SDS011;51223;51.816;5.862;2023-08-17T12:08:43;2.38;;;1.95;;
64789;SDS011;51223;51.816;5.862;2023-08-17T12:11:08;5.25;;;1.65;;
64789;SDS011;51223;51.816;5.862;2023-08-17T12:13:34;3.65;;;2.22;;
64789;SDS011;51223;51.816;5.862;2023-08-17T12:16:00;2.25;;;1.50;;
64789;SDS011;51223;51.816;5.862;2023-08-17T12:18:26;2.97;;;2.00;;
64789;SDS011;51223;51.816;5.862;2023-08-17T12:20:52;2.65;;;1.70;;
64789;SDS011;51223;51.816;5.862;2023-08-17T12:23:18;2.17;;;1.30;;
64789;SDS011;51223;51.816;5.862;2023-08-17T12:25:43;3.75;;;1.92;;
64789;SDS011;51223;51.816;5.862;2023-08-17T12:28:12;3.00;;;1.85;;
64789;SDS011;51223;51.816;5.862;2023-08-17T12:30:37;3.10;;;2.42;;
64789;SDS011;51223;51.816;5.862;2023-08-17T12:33:03;2.88;;;2.40;;
64789;SDS011;51223;51.816;5.862;2023-08-17T12:35:29;2.92;;;1.90;;
64789;SDS011;51223;51.816;5.862;2023-08-17T12:37:55;3.53;;;2.35;;
64789;SDS011;51223;51.816;5.862;2023-08-17T12:40:21;4.32;;;2.53;;
64789;SDS011;51223;51.816;5.862;2023-08-17T12:42:46;5.20;;;2.00;;
64789;SDS011;51223;51.816;5.862;2023-08-17T12:45:12;3.70;;;1.70;;
64789;SDS011;51223;51.816;5.862;2023-08-17T12:47:38;6.63;;;2.92;;
64789;SDS011;51223;51.816;5.862;2023-08-17T12:50:04;6.15;;;1.55;;
64789;SDS011;51223;51.816;5.862;2023-08-17T12:52:30;5.32;;;2.58;;
64789;SDS011;51223;51.816;5.862;2023-08-17T12:54:55;5.55;;;2.00;;
64789;SDS011;51223;51.816;5.862;2023-08-17T12:57:21;6.15;;;2.72;;
64789;SDS011;51223;51.816;5.862;2023-08-17T12:59:46;3.53;;;2.45;;
64789;SDS011;51223;51.816;5.862;2023-08-17T13:02:12;12.90;;;3.47;;
64789;SDS011;51223;51.816;5.862;2023-08-17T13:04:37;3.92;;;2.42;;
64789;SDS011;51223;51.816;5.862;2023-08-17T13:07:03;5.15;;;2.70;;
64789;SDS011;51223;51.816;5.862;2023-08-17T13:09:29;6.03;;;3.53;;
64789;SDS011;51223;51.816;5.862;2023-08-17T13:11:54;3.55;;;2.80;;
64789;SDS011;51223;51.816;5.862;2023-08-17T13:14:20;3.22;;;2.38;;
64789;SDS011;51223;51.816;5.862;2023-08-17T13:16:48;7.07;;;3.47;;
64789;SDS011;51223;51.816;5.862;2023-08-17T13:19:14;4.35;;;2.75;;
64789;SDS011;51223;51.816;5.862;2023-08-17T13:21:40;6.32;;;3.03;;
64789;SDS011;51223;51.816;5.862;2023-08-17T13:24:05;5.63;;;3.45;;
64789;SDS011;51223;51.816;5.862;2023-08-17T13:26:31;2.67;;;2.05;;
64789;SDS011;51223;51.816;5.862;2023-08-17T13:28:57;4.70;;;1.75;;
64789;SDS011;51223;51.816;5.862;2023-08-17T13:31:23;7.40;;;3.28;;
64789;SDS011;51223;51.816;5.862;2023-08-17T13:33:48;2.60;;;1.90;;
64789;SDS011;51223;51.816;5.862;2023-08-17T13:36:14;4.00;;;2.90;;
64789;SDS011;51223;51.816;5.862;2023-08-17T13:38:39;3.92;;;2.70;;
64789;SDS011;51223;51.816;5.862;2023-08-17T13:41:05;4.10;;;3.03;;
64789;SDS011;51223;51.816;5.862;2023-08-17T13:43:30;5.65;;;2.95;;
64789;SDS011;51223;51.816;5.862;2023-08-17T13:45:56;3.80;;;2.58;;
64789;SDS011;51223;51.816;5.862;2023-08-17T13:48:22;4.93;;;3.47;;
64789;SDS011;51223;51.816;5.862;2023-08-17T13:50:47;6.55;;;3.08;;
64789;SDS011;51223;51.816;5.862;2023-08-17T13:53:13;3.67;;;2.70;;
64789;SDS011;51223;51.816;5.862;2023-08-17T13:55:38;3.75;;;1.80;;
64789;SDS011;51223;51.816;5.862;2023-08-17T13:58:04;4.25;;;3.08;;
64789;SDS011;51223;51.816;5.862;2023-08-17T14:00:30;6.03;;;3.63;;
64789;SDS011;51223;51.816;5.862;2023-08-17T14:02:56;6.35;;;3.13;;
64789;SDS011;51223;51.816;5.862;2023-08-17T14:05:21;5.70;;;3.22;;
64789;SDS011;51223;51.816;5.862;2023-08-17T14:07:47;5.07;;;3.42;;
64789;SDS011;51223;51.816;5.862;2023-08-17T14:10:13;4.15;;;3.22;;
64789;SDS011;51223;51.816;5.862;2023-08-17T14:12:39;8.85;;;3.20;;
64789;SDS011;51223;51.816;5.862;2023-08-17T14:15:05;6.93;;;3.38;;
64789;SDS011;51223;51.816;5.862;2023-08-17T14:17:30;5.53;;;3.22;;
64789;SDS011;51223;51.816;5.862;2023-08-17T14:19:56;4.88;;;3.10;;
64789;SDS011;51223;51.816;5.862;2023-08-17T14:22:22;2.55;;;2.08;;
64789;SDS011;51223;51.816;5.862;2023-08-17T14:24:47;6.35;;;3.58;;
64789;SDS011;51223;51.816;5.862;2023-08-17T14:27:13;4.75;;;3.08;;
64789;SDS011;51223;51.816;5.862;2023-08-17T14:29:38;4.32;;;2.45;;
64789;SDS011;51223;51.816;5.862;2023-08-17T14:32:04;5.05;;;3.15;;
64789;SDS011;51223;51.816;5.862;2023-08-17T14:34:29;4.93;;;2.90;;
64789;SDS011;51223;51.816;5.862;2023-08-17T14:36:55;3.50;;;2.70;;
64789;SDS011;51223;51.816;5.862;2023-08-17T14:39:21;4.53;;;3.15;;
64789;SDS011;51223;51.816;5.862;2023-08-17T14:41:46;4.35;;;2.85;;
64789;SDS011;51223;51.816;5.862;2023-08-17T14:44:12;3.80;;;2.85;;
64789;SDS011;51223;51.816;5.862;2023-08-17T14:46:37;3.42;;;2.53;;
64789;SDS011;51223;51.816;5.862;2023-08-17T14:49:04;2.70;;;2.25;;
64789;SDS011;51223;51.816;5.862;2023-08-17T14:51:31;4.38;;;3.05;;
64789;SDS011;51223;51.816;5.862;2023-08-17T14:54:02;3.25;;;1.83;;
64789;SDS011;51223;51.816;5.862;2023-08-17T14:56:27;4.72;;;3.03;;